createdAt,value
2018-11-23T00:00:21.746Z,35.87
2018-11-23T00:02:50.929Z,29.00
2018-11-23T00:05:19.928Z,28.10
2018-11-23T00:07:49.144Z,25.63
2018-11-23T00:10:19.138Z,27.13
2018-11-23T00:12:48.127Z,23.40
2018-11-23T00:15:18.059Z,25.50
2018-11-23T00:17:46.758Z,22.47
2018-11-23T00:20:19.773Z,28.33
2018-11-23T00:22:48.490Z,26.17
2018-11-23T00:25:18.408Z,23.10
2018-11-23T00:27:47.326Z,24.87
2018-11-23T00:30:17.309Z,23.93
2018-11-23T00:32:46.303Z,24.60
2018-11-23T00:35:16.981Z,22.90
2018-11-23T00:37:46.059Z,25.33
2018-11-23T00:40:19.551Z,24.30
2018-11-23T00:42:48.418Z,20.70
2018-11-23T00:45:17.130Z,24.80
2018-11-23T00:47:46.619Z,26.20
2018-11-23T00:50:16.718Z,28.90
2018-11-23T00:52:45.865Z,25.63
2018-11-23T00:55:15.832Z,26.57
2018-11-23T00:57:44.542Z,21.73
2018-11-23T01:00:16.178Z,25.57
2018-11-23T01:02:45.271Z,24.30
2018-11-23T01:05:15.591Z,21.60
2018-11-23T01:07:44.910Z,23.63
2018-11-23T01:10:15.110Z,26.80
2018-11-23T01:12:45.043Z,20.87
2018-11-23T01:15:13.802Z,22.37
2018-11-23T01:17:42.511Z,21.00
2018-11-23T01:20:13.506Z,22.00
2018-11-23T01:22:42.433Z,22.97
2018-11-23T01:25:12.591Z,19.97
2018-11-23T01:27:42.126Z,21.83
2018-11-23T01:30:13.088Z,25.40
2018-11-23T01:32:41.811Z,21.30
2018-11-23T01:35:10.535Z,21.13
2018-11-23T01:37:39.261Z,21.67
2018-11-23T01:40:09.847Z,24.10
2018-11-23T01:42:38.550Z,25.27
2018-11-23T01:45:08.118Z,19.50
2018-11-23T01:47:36.844Z,21.90
2018-11-23T01:50:08.443Z,21.63
2018-11-23T01:52:37.160Z,19.90
2018-11-23T01:55:07.146Z,21.50
2018-11-23T01:57:36.098Z,22.77
2018-11-23T02:00:05.522Z,20.93
2018-11-23T02:02:34.210Z,27.80
2018-11-23T02:05:02.883Z,24.23
2018-11-23T02:07:31.839Z,19.80
2018-11-23T02:10:00.541Z,21.57
2018-11-23T02:12:29.227Z,21.70
2018-11-23T02:14:57.927Z,23.13
2018-11-23T02:17:26.598Z,23.07
2018-11-23T02:19:56.698Z,24.57
2018-11-23T02:22:26.598Z,25.00
2018-11-23T02:24:55.287Z,22.00
2018-11-23T02:27:24.245Z,20.00
2018-11-23T02:29:53.190Z,24.20
2018-11-23T02:32:21.887Z,20.37
2018-11-23T02:34:50.578Z,21.13
2018-11-23T02:37:19.275Z,19.83
2018-11-23T02:39:47.962Z,21.93
2018-11-23T02:42:16.638Z,23.07
2018-11-23T02:44:45.329Z,20.50
2018-11-23T02:47:14.184Z,20.57
2018-11-23T02:49:42.867Z,23.60
2018-11-23T02:52:11.571Z,21.93
2018-11-23T02:54:40.250Z,18.53
2018-11-23T02:57:08.931Z,20.13
2018-11-23T02:59:37.614Z,17.30
2018-11-23T03:02:06.299Z,26.70
2018-11-23T03:04:34.983Z,24.70
2018-11-23T03:07:03.951Z,22.73
2018-11-23T03:09:32.640Z,22.20
2018-11-23T03:12:01.323Z,23.07
2018-11-23T03:14:30.023Z,21.87
2018-11-23T03:17:04.351Z,21.80
2018-11-23T03:19:34.039Z,18.00
2018-11-23T03:22:02.734Z,21.53
2018-11-23T03:24:31.398Z,25.67
2018-11-23T03:27:00.390Z,20.97
2018-11-23T03:29:29.071Z,19.83
2018-11-23T03:31:57.751Z,19.70
2018-11-23T03:34:26.434Z,23.17
2018-11-23T03:36:55.134Z,25.30
2018-11-23T03:39:24.115Z,22.43
2018-11-23T03:41:52.827Z,16.97
2018-11-23T03:44:21.527Z,21.23
2018-11-23T03:46:50.262Z,21.10
2018-11-23T03:49:18.946Z,23.63
2018-11-23T03:51:47.686Z,21.60
2018-11-23T03:54:16.387Z,20.50
2018-11-23T03:56:45.078Z,21.00
2018-11-23T03:59:13.803Z,17.53
2018-11-23T04:01:42.499Z,23.43
2018-11-23T04:04:11.226Z,23.37
2018-11-23T04:06:40.266Z,22.77
2018-11-23T04:09:09.271Z,22.27
2018-11-23T04:11:38.062Z,23.53
2018-11-23T04:14:06.778Z,24.50
2018-11-23T04:16:35.475Z,22.93
2018-11-23T04:19:04.183Z,24.27
2018-11-23T04:21:32.882Z,19.83
2018-11-23T04:24:01.578Z,24.70
2018-11-23T04:26:30.287Z,20.70
2018-11-23T04:28:58.994Z,21.93
2018-11-23T04:31:27.694Z,24.70
2018-11-23T04:33:56.410Z,21.07
2018-11-23T04:36:25.126Z,20.13
2018-11-23T04:38:53.818Z,21.60
2018-11-23T04:41:23.343Z,21.23
2018-11-23T04:43:52.047Z,20.67
2018-11-23T04:46:20.738Z,25.20
2018-11-23T04:48:49.438Z,25.50
2018-11-23T04:51:18.258Z,23.20
2018-11-23T04:53:46.966Z,23.43
2018-11-23T04:56:15.663Z,22.60
2018-11-23T04:58:44.382Z,21.80
2018-11-23T05:01:13.085Z,20.03
2018-11-23T05:03:41.775Z,25.33
2018-11-23T05:06:10.478Z,21.97
2018-11-23T05:08:39.174Z,21.47
2018-11-23T05:11:07.871Z,17.33
2018-11-23T05:13:36.590Z,23.37
2018-11-23T05:16:05.323Z,19.70
2018-11-23T05:18:34.031Z,21.73
2018-11-23T05:21:02.740Z,21.00
2018-11-23T05:23:31.442Z,21.30
2018-11-23T05:26:00.146Z,20.57
2018-11-23T05:28:28.870Z,22.60
2018-11-23T05:30:57.562Z,21.53
2018-11-23T05:33:26.266Z,19.17
2018-11-23T05:35:54.967Z,24.07
2018-11-23T05:38:23.661Z,22.77
2018-11-23T05:40:52.371Z,24.80
2018-11-23T05:43:21.090Z,24.60
2018-11-23T05:45:49.800Z,17.63
2018-11-23T05:48:19.015Z,18.87
2018-11-23T05:50:47.195Z,23.70
2018-11-23T05:53:15.898Z,21.13
2018-11-23T05:55:44.599Z,19.50
2018-11-23T05:58:13.317Z,18.67
2018-11-23T06:00:42.014Z,18.17
2018-11-23T06:03:10.714Z,21.10
2018-11-23T06:05:39.434Z,19.67
2018-11-23T06:08:08.274Z,22.30
2018-11-23T06:10:36.997Z,24.73
2018-11-23T06:13:05.706Z,20.00
2018-11-23T06:15:34.410Z,23.27
2018-11-23T06:18:03.126Z,22.20
2018-11-23T06:20:31.843Z,22.03
2018-11-23T06:23:00.539Z,21.20
2018-11-23T06:25:35.191Z,21.13
2018-11-23T06:28:03.914Z,22.67
2018-11-23T06:30:32.682Z,21.20
2018-11-23T06:33:13.262Z,25.07
2018-11-23T06:35:41.979Z,24.63
2018-11-23T06:38:10.718Z,19.27
2018-11-23T06:40:39.434Z,24.67
2018-11-23T06:43:08.141Z,25.10
2018-11-23T06:45:39.546Z,29.00
2018-11-23T06:48:09.058Z,24.57
2018-11-23T06:50:37.766Z,24.77
2018-11-23T06:53:06.822Z,27.77
2018-11-23T06:55:35.534Z,24.83
2018-11-23T06:58:04.466Z,21.30
2018-11-23T07:00:33.178Z,18.17
2018-11-23T07:03:01.894Z,23.63
2018-11-23T07:05:30.590Z,30.53
2018-11-23T07:07:59.313Z,57.40
2018-11-23T07:10:28.026Z,59.33
2018-11-23T07:12:56.735Z,58.40
2018-11-23T07:15:25.477Z,41.13
2018-11-23T07:18:06.763Z,36.97
2018-11-23T07:20:35.491Z,36.30
2018-11-23T07:23:04.659Z,34.23
2018-11-23T07:25:33.392Z,32.13
2018-11-23T07:28:02.103Z,33.53
2018-11-23T07:33:41.383Z,34.90
2018-11-23T07:36:10.495Z,43.90
2018-11-23T07:38:39.195Z,38.17
2018-11-23T07:41:19.514Z,37.47
2018-11-23T07:43:48.215Z,33.43
2018-11-23T07:46:21.491Z,30.80
2018-11-23T07:48:50.198Z,30.43
2018-11-23T07:51:18.962Z,35.60
2018-11-23T07:53:47.690Z,31.47
2018-11-23T07:56:16.404Z,32.93
2018-11-23T07:58:45.122Z,34.83
2018-11-23T08:01:15.950Z,29.00
2018-11-23T08:03:44.647Z,32.20
2018-11-23T08:06:28.142Z,23.63
2018-11-23T08:08:56.855Z,23.80
2018-11-23T08:11:25.579Z,30.40
2018-11-23T08:13:57.339Z,36.07
2018-11-23T08:16:26.894Z,33.80
2018-11-23T08:18:55.575Z,31.80
2018-11-23T08:21:24.299Z,27.83
2018-11-23T08:23:53.010Z,24.33
2018-11-23T08:26:21.723Z,30.23
2018-11-23T08:28:50.422Z,26.00
2018-11-23T08:31:24.095Z,27.30
2018-11-23T08:33:52.947Z,24.03
2018-11-23T08:36:21.645Z,31.97
2018-11-23T08:38:50.498Z,22.50
2018-11-23T08:41:19.246Z,26.57
2018-11-23T08:43:47.950Z,22.13
2018-11-23T08:46:16.673Z,18.97
2018-11-23T08:48:45.534Z,19.20
2018-11-23T08:51:14.445Z,20.50
2018-11-23T08:53:43.166Z,20.13
2018-11-23T08:56:11.868Z,22.23
2018-11-23T08:58:40.591Z,19.37
2018-11-23T09:04:06.450Z,20.60
2018-11-23T09:06:35.166Z,22.00
2018-11-23T09:09:06.231Z,22.37
2018-11-23T09:11:34.938Z,23.63
2018-11-23T09:14:03.687Z,22.33
2018-11-23T09:16:32.394Z,14.83
2018-11-23T09:19:01.143Z,17.70
2018-11-23T09:21:29.805Z,24.23
2018-11-23T09:23:58.873Z,20.53
2018-11-23T09:26:27.553Z,16.73
2018-11-23T09:28:56.262Z,19.67
2018-11-23T09:31:25.310Z,18.83
2018-11-23T09:33:54.426Z,25.17
2018-11-23T09:36:23.208Z,20.70
2018-11-23T09:38:51.926Z,23.40
2018-11-23T09:41:20.626Z,15.07
2018-11-23T09:43:49.325Z,15.03
2018-11-23T09:46:18.035Z,16.13
2018-11-23T09:48:46.732Z,18.30
2018-11-23T09:51:15.464Z,18.23
2018-11-23T09:53:44.150Z,17.80
2018-11-23T09:56:12.874Z,19.23
2018-11-23T09:58:43.764Z,20.67
2018-11-23T10:01:10.319Z,22.20
2018-11-23T10:03:38.975Z,22.00
2018-11-23T10:06:07.682Z,18.43
2018-11-23T10:08:37.446Z,20.07
2018-11-23T10:11:05.204Z,23.43
2018-11-23T10:13:33.914Z,17.97
2018-11-23T10:16:12.548Z,18.87
2018-11-23T10:18:41.251Z,22.27
2018-11-23T10:21:09.938Z,20.30
2018-11-23T10:23:38.634Z,19.17
2018-11-23T10:26:07.327Z,25.03
2018-11-23T10:28:36.023Z,24.07
2018-11-23T10:31:25.322Z,23.03
2018-11-23T10:33:54.022Z,22.60
2018-11-23T10:36:22.759Z,20.50
2018-11-23T10:38:51.597Z,23.87
2018-11-23T10:41:20.390Z,23.73
2018-11-23T10:43:49.199Z,21.87
2018-11-23T10:46:18.028Z,25.47
2018-11-23T10:48:46.948Z,22.10
2018-11-23T10:51:15.719Z,25.67
2018-11-23T10:56:14.591Z,22.87
2018-11-23T10:58:43.285Z,26.90
2018-11-23T11:01:17.682Z,24.23
2018-11-23T11:03:51.730Z,28.70
2018-11-23T11:06:25.742Z,27.77
2018-11-23T11:11:45.851Z,22.97
2018-11-23T11:14:14.542Z,24.83
2018-11-23T11:16:43.587Z,24.70
2018-11-23T11:19:12.273Z,24.87
2018-11-23T11:21:40.968Z,24.43
2018-11-23T11:24:09.683Z,29.27
2018-11-23T11:26:38.398Z,26.47
2018-11-23T11:29:07.098Z,27.83
2018-11-23T11:31:35.847Z,25.63
2018-11-23T11:34:04.862Z,17.10
2018-11-23T11:36:33.573Z,18.43
2018-11-23T11:39:02.570Z,17.00
2018-11-23T11:41:31.279Z,16.37
2018-11-23T11:46:57.502Z,16.47
2018-11-23T11:49:26.204Z,12.50
2018-11-23T11:51:54.926Z,16.93
2018-11-23T11:54:23.626Z,14.13
2018-11-23T11:56:52.310Z,15.23
2018-11-23T11:59:21.009Z,12.77
2018-11-23T12:01:49.712Z,17.33
2018-11-23T12:04:18.439Z,11.97
2018-11-23T12:06:47.413Z,15.33
2018-11-23T12:09:16.098Z,12.30
2018-11-23T12:11:44.814Z,12.97
2018-11-23T12:14:13.518Z,16.67
2018-11-23T12:16:42.227Z,17.13
2018-11-23T12:19:10.914Z,14.50
2018-11-23T12:21:39.682Z,15.57
2018-11-23T12:24:08.399Z,13.43
2018-11-23T12:26:37.099Z,15.27
2018-11-23T12:29:05.858Z,12.73
2018-11-23T12:31:34.563Z,11.60
2018-11-23T12:34:03.260Z,16.13
2018-11-23T12:36:31.962Z,12.57
2018-11-23T12:39:00.673Z,11.90
2018-11-23T12:41:29.359Z,13.23
2018-11-23T12:43:58.053Z,14.13
2018-11-23T12:46:26.798Z,12.27
2018-11-23T12:48:55.494Z,12.90
2018-11-23T12:51:24.201Z,12.73
2018-11-23T12:53:52.922Z,12.13
2018-11-23T12:56:21.610Z,13.77
2018-11-23T13:01:41.531Z,12.23
2018-11-23T13:04:10.222Z,11.57
2018-11-23T13:06:38.914Z,15.77
2018-11-23T13:09:08.211Z,13.83
2018-11-23T13:11:38.907Z,16.13
2018-11-23T13:14:08.091Z,14.80
2018-11-23T13:16:36.814Z,12.57
2018-11-23T13:19:05.542Z,13.13
2018-11-23T13:21:34.259Z,12.10
2018-11-23T13:24:03.255Z,13.67
2018-11-23T13:26:40.750Z,13.10
2018-11-23T13:29:16.084Z,10.67
2018-11-23T13:31:38.162Z,12.53
2018-11-23T13:34:06.866Z,12.70
2018-11-23T13:36:35.584Z,10.17
2018-11-23T13:39:05.210Z,12.57
2018-11-23T13:41:33.948Z,11.97
2018-11-23T13:44:02.651Z,9.90
2018-11-23T13:46:31.353Z,9.60
2018-11-23T13:49:00.050Z,9.03
2018-11-23T13:51:28.759Z,10.03
2018-11-23T13:53:57.478Z,11.23
2018-11-23T13:56:26.188Z,11.57
2018-11-23T13:58:54.923Z,9.33
2018-11-23T14:01:23.606Z,9.67
2018-11-23T14:03:52.297Z,11.23
2018-11-23T14:06:21.342Z,10.20
2018-11-23T14:08:50.038Z,18.50
2018-11-23T14:11:18.734Z,11.17
2018-11-23T14:13:47.460Z,14.87
2018-11-23T14:16:16.142Z,10.63
2018-11-23T14:18:44.839Z,12.73
2018-11-23T14:21:13.541Z,16.13
2018-11-23T14:23:42.237Z,18.10
2018-11-23T14:26:14.278Z,15.80
2018-11-23T14:28:42.967Z,20.37
2018-11-23T14:31:24.158Z,17.53
2018-11-23T14:33:52.867Z,14.60
2018-11-23T14:36:21.582Z,17.17
2018-11-23T14:42:03.870Z,17.40
2018-11-23T14:44:32.578Z,15.77
2018-11-23T14:47:01.282Z,22.30
2018-11-23T14:49:29.983Z,19.00
2018-11-23T14:51:58.789Z,14.67
2018-11-23T14:54:27.473Z,16.63
2018-11-23T14:56:56.434Z,13.97
2018-11-23T14:59:25.154Z,18.43
2018-11-23T15:01:53.842Z,20.90
2018-11-23T15:04:22.554Z,18.97
2018-11-23T15:06:51.261Z,25.33
2018-11-23T15:09:19.958Z,18.30
2018-11-23T15:11:48.671Z,19.77
2018-11-23T15:14:17.406Z,15.33
2018-11-23T15:16:46.105Z,18.30
2018-11-23T15:19:14.854Z,24.17
2018-11-23T15:21:43.560Z,19.90
2018-11-23T15:24:12.363Z,21.33
2018-11-23T15:26:41.050Z,21.50
2018-11-23T15:29:09.775Z,20.93
2018-11-23T15:31:38.475Z,20.90
2018-11-23T15:34:07.176Z,19.77
2018-11-23T15:36:35.871Z,21.07
2018-11-23T15:39:08.382Z,22.13
2018-11-23T15:41:37.291Z,17.17
2018-11-23T15:44:06.207Z,18.10
2018-11-23T15:46:34.915Z,19.47
2018-11-23T15:49:03.615Z,24.53
2018-11-23T15:51:32.314Z,20.37
2018-11-23T15:54:01.023Z,21.20
2018-11-23T15:56:29.811Z,20.13
2018-11-23T15:58:58.507Z,23.63
2018-11-23T16:01:27.206Z,25.43
2018-11-23T16:03:55.903Z,19.83
2018-11-23T16:06:25.009Z,21.80
2018-11-23T16:09:08.254Z,16.65
2018-11-23T16:11:36.992Z,24.80
2018-11-23T16:14:05.959Z,23.53
2018-11-23T16:16:34.890Z,26.90
2018-11-23T16:19:03.735Z,25.77
2018-11-23T16:21:32.487Z,31.73
2018-11-23T16:24:01.227Z,28.50
2018-11-23T16:26:29.957Z,27.97
2018-11-23T16:28:58.639Z,29.77
2018-11-23T16:31:27.363Z,22.77
2018-11-23T16:33:56.054Z,27.30
2018-11-23T16:36:24.762Z,25.23
2018-11-23T16:41:45.731Z,21.20
2018-11-23T16:44:14.435Z,24.23
2018-11-23T16:46:43.230Z,23.07
2018-11-23T16:49:11.954Z,19.03
2018-11-23T16:51:40.691Z,24.73
2018-11-23T16:54:09.394Z,21.73
2018-11-23T16:56:42.626Z,21.03
2018-11-23T16:59:11.371Z,19.90
2018-11-23T17:01:40.074Z,20.47
2018-11-23T17:04:08.974Z,22.90
2018-11-23T17:06:37.698Z,18.70
2018-11-23T17:09:07.099Z,17.40
2018-11-23T17:11:51.733Z,18.50
2018-11-23T17:14:20.451Z,23.93
2018-11-23T17:16:49.178Z,25.27
2018-11-23T17:19:17.982Z,23.17
2018-11-23T17:21:46.674Z,22.77
2018-11-23T17:24:15.379Z,25.63
2018-11-23T17:26:44.219Z,22.57
2018-11-23T17:29:13.145Z,18.83
2018-11-23T17:31:41.924Z,22.67
2018-11-23T17:34:14.724Z,22.80
2018-11-23T17:36:43.528Z,23.00
2018-11-23T17:39:12.378Z,23.20
2018-11-23T17:41:41.224Z,27.30
2018-11-23T17:44:10.084Z,21.37
2018-11-23T17:46:38.907Z,21.50
2018-11-23T17:49:07.782Z,21.50
2018-11-23T17:51:36.717Z,19.10
2018-11-23T17:54:05.819Z,25.60
2018-11-23T17:56:34.676Z,21.97
2018-11-23T17:59:08.632Z,21.27
2018-11-23T18:01:37.477Z,21.83
2018-11-23T18:04:06.303Z,25.00
2018-11-23T18:06:35.197Z,24.97
2018-11-23T18:09:04.983Z,21.83
2018-11-23T18:11:33.677Z,22.47
2018-11-23T18:14:02.420Z,27.23
2018-11-23T18:16:31.152Z,22.93
2018-11-23T18:19:02.229Z,26.37
2018-11-23T18:21:30.928Z,28.27
2018-11-23T18:23:59.923Z,27.37
2018-11-23T18:26:28.643Z,24.00
2018-11-23T18:28:57.345Z,28.67
2018-11-23T18:31:26.058Z,26.23
2018-11-23T18:33:54.783Z,38.67
2018-11-23T18:36:23.520Z,25.00
2018-11-23T18:38:52.269Z,22.30
2018-11-23T18:41:21.247Z,23.17
2018-11-23T18:43:55.927Z,25.67
2018-11-23T18:46:24.951Z,23.80
2018-11-23T18:48:53.686Z,27.23
2018-11-23T18:51:22.413Z,27.83
2018-11-23T18:53:51.382Z,26.87
2018-11-23T18:56:20.233Z,23.80
2018-11-23T18:58:49.045Z,24.40
2018-11-23T19:01:17.790Z,22.03
2018-11-23T19:03:55.182Z,22.37
2018-11-23T19:06:23.934Z,23.87
2018-11-23T19:08:52.629Z,20.07
2018-11-23T19:11:21.402Z,20.07
2018-11-23T19:13:50.105Z,21.27
2018-11-23T19:16:18.855Z,21.40
2018-11-23T19:18:47.551Z,22.77
2018-11-23T19:21:16.250Z,23.20
2018-11-23T19:23:44.971Z,17.73
2018-11-23T19:26:13.666Z,18.20
2018-11-23T19:28:42.366Z,20.70
2018-11-23T19:31:11.112Z,17.30
2018-11-23T19:33:39.807Z,22.70
2018-11-23T19:36:08.499Z,18.37
2018-11-23T19:38:37.370Z,25.53
2018-11-23T19:41:06.091Z,18.53
2018-11-23T19:43:34.895Z,17.30
2018-11-23T19:46:03.659Z,18.80
2018-11-23T19:48:32.392Z,15.67
2018-11-23T19:51:01.082Z,17.63
2018-11-23T19:53:29.766Z,15.23
2018-11-23T19:55:58.476Z,19.53
2018-11-23T19:58:27.167Z,16.67
2018-11-23T20:00:55.926Z,18.23
2018-11-23T20:03:24.701Z,17.60
2018-11-23T20:05:53.551Z,14.37
2018-11-23T20:08:22.252Z,20.70
2018-11-23T20:10:51.048Z,24.10
2018-11-23T20:13:19.730Z,18.83
2018-11-23T20:15:48.418Z,16.77
2018-11-23T20:18:17.147Z,19.80
2018-11-23T20:20:45.838Z,18.43
2018-11-23T20:23:14.570Z,16.27
2018-11-23T20:25:43.275Z,17.87
2018-11-23T20:28:12.054Z,17.80
2018-11-23T20:30:42.480Z,16.93
2018-11-23T20:33:10.526Z,15.53
2018-11-23T20:35:39.218Z,16.00
2018-11-23T20:38:07.906Z,16.60
2018-11-23T20:40:36.754Z,16.60
2018-11-23T20:43:05.887Z,18.33
2018-11-23T20:45:34.595Z,19.37
2018-11-23T20:48:03.322Z,22.40
2018-11-23T20:50:32.018Z,15.70
2018-11-23T20:53:00.725Z,14.13
2018-11-23T20:55:29.498Z,18.70
2018-11-23T20:57:58.211Z,16.90
2018-11-23T21:00:26.962Z,15.63
2018-11-23T21:02:55.668Z,17.97
2018-11-23T21:05:24.378Z,16.17
2018-11-23T21:07:53.267Z,20.30
2018-11-23T21:10:24.962Z,15.37
2018-11-23T21:12:54.476Z,18.80
2018-11-23T21:15:30.270Z,19.53
2018-11-23T21:18:02.174Z,17.97
2018-11-23T21:20:31.012Z,13.87
2018-11-23T21:22:59.706Z,15.93
2018-11-23T21:25:28.570Z,17.60
2018-11-23T21:27:57.391Z,15.70
2018-11-23T21:30:29.067Z,15.63
2018-11-23T21:32:58.914Z,15.13
2018-11-23T21:35:27.622Z,15.13
2018-11-23T21:37:56.389Z,16.97
2018-11-23T21:40:25.124Z,16.07
2018-11-23T21:42:58.836Z,17.67
2018-11-23T21:45:27.863Z,15.20
2018-11-23T21:48:02.607Z,18.40
2018-11-23T21:50:31.305Z,17.37
2018-11-23T21:53:00.012Z,15.33
2018-11-23T21:55:28.716Z,19.50
2018-11-23T21:57:57.410Z,17.23
2018-11-23T22:00:26.129Z,18.70
2018-11-23T22:02:54.837Z,17.43
2018-11-23T22:05:23.548Z,18.77
2018-11-23T22:07:52.250Z,17.03
2018-11-23T22:10:20.947Z,17.00
2018-11-23T22:12:49.648Z,22.13
2018-11-23T22:15:22.415Z,20.40
2018-11-23T22:17:52.315Z,20.77
2018-11-23T22:20:21.614Z,15.40
2018-11-23T22:22:50.332Z,21.43
2018-11-23T22:25:19.998Z,21.70
2018-11-23T22:27:48.806Z,17.43
2018-11-23T22:30:19.938Z,21.43
2018-11-23T22:32:48.635Z,20.30
2018-11-23T22:35:17.349Z,19.13
2018-11-23T22:37:46.047Z,20.57
2018-11-23T22:40:15.902Z,21.10
2018-11-23T22:42:45.683Z,24.67
2018-11-23T22:45:15.214Z,26.73
2018-11-23T22:47:43.925Z,22.60
2018-11-23T22:50:15.816Z,25.57
2018-11-23T22:52:44.518Z,33.67
2018-11-23T22:55:13.951Z,34.60
2018-11-23T22:57:42.655Z,27.90
2018-11-23T23:00:20.699Z,30.80
2018-11-23T23:02:50.187Z,36.10
2018-11-23T23:05:20.161Z,36.23
2018-11-23T23:07:48.863Z,30.57
2018-11-23T23:10:17.875Z,33.30
2018-11-23T23:12:46.731Z,33.67
2018-11-23T23:15:15.434Z,35.20
2018-11-23T23:17:44.325Z,36.37
2018-11-23T23:20:14.118Z,37.53
2018-11-23T23:22:42.819Z,38.87
2018-11-23T23:25:12.196Z,40.13
2018-11-23T23:27:40.889Z,30.17
2018-11-23T23:30:14.583Z,25.47
2018-11-23T23:32:43.587Z,28.93
2018-11-23T23:35:13.170Z,36.33
2018-11-23T23:37:42.046Z,34.17
2018-11-23T23:40:17.871Z,33.90
2018-11-23T23:42:47.224Z,34.00
2018-11-23T23:45:21.870Z,28.50
2018-11-23T23:47:50.587Z,25.87
2018-11-23T23:50:20.236Z,45.33
2018-11-23T23:52:49.387Z,31.17
2018-11-23T23:55:18.132Z,25.07
2018-11-23T23:57:47.289Z,23.33
